createdAt,value
2019-05-26T00:00:49.303Z,10.79
2019-05-26T00:03:15.411Z,10.72
2019-05-26T00:05:41.558Z,10.67
2019-05-26T00:08:07.601Z,10.63
2019-05-26T00:10:33.727Z,10.64
2019-05-26T00:12:59.626Z,10.68
2019-05-26T00:15:25.765Z,10.64
2019-05-26T00:17:51.803Z,10.58
2019-05-26T00:20:17.904Z,10.54
2019-05-26T00:22:44.046Z,10.53
2019-05-26T00:25:10.879Z,10.48
2019-05-26T00:27:36.886Z,10.41
2019-05-26T00:30:08.011Z,10.37
2019-05-26T00:32:34.011Z,10.32
2019-05-26T00:34:59.942Z,10.28
2019-05-26T00:37:26.058Z,10.28
2019-05-26T00:39:51.957Z,10.26
2019-05-26T00:42:18.092Z,10.21
2019-05-26T00:44:44.100Z,10.15
2019-05-26T00:47:10.231Z,10.08
2019-05-26T00:49:36.378Z,10.05
2019-05-26T00:52:02.503Z,10.06
2019-05-26T00:54:28.648Z,10.07
2019-05-26T00:56:54.686Z,10.03
2019-05-26T00:59:20.789Z,10.02
2019-05-26T01:01:46.997Z,10.01
2019-05-26T01:04:13.110Z,9.98
2019-05-26T01:06:39.212Z,9.94
2019-05-26T01:09:06.926Z,9.88
2019-05-26T01:11:33.037Z,9.81
2019-05-26T01:13:59.033Z,9.78
2019-05-26T01:16:24.983Z,9.74
2019-05-26T01:18:51.084Z,9.69
2019-05-26T01:21:17.240Z,9.66
2019-05-26T01:23:43.246Z,9.65
2019-05-26T01:26:09.366Z,9.62
2019-05-26T01:28:35.269Z,9.61
2019-05-26T01:31:01.285Z,9.61
2019-05-26T01:33:27.393Z,9.59
2019-05-26T01:35:53.499Z,9.55
2019-05-26T01:38:24.142Z,9.54
2019-05-26T01:40:48.412Z,9.53
2019-05-26T01:43:14.430Z,9.53
2019-05-26T01:45:40.530Z,9.51
2019-05-26T01:48:06.735Z,9.47
2019-05-26T01:50:32.982Z,9.44
2019-05-26T01:52:58.890Z,9.46
2019-05-26T01:55:24.933Z,9.47
2019-05-26T01:57:50.912Z,9.49
2019-05-26T02:00:17.066Z,9.47
2019-05-26T02:02:43.114Z,9.45
2019-05-26T02:05:09.208Z,9.44
2019-05-26T02:07:35.246Z,9.44
2019-05-26T02:10:01.759Z,9.45
2019-05-26T02:12:27.693Z,9.49
2019-05-26T02:14:53.730Z,9.55
2019-05-26T02:17:19.745Z,9.58
2019-05-26T02:19:45.674Z,9.59
2019-05-26T02:22:11.787Z,9.62
2019-05-26T02:24:37.898Z,9.68
2019-05-26T02:27:03.911Z,9.71
2019-05-26T02:29:29.824Z,9.66
2019-05-26T02:31:55.843Z,9.66
2019-05-26T02:34:22.011Z,9.69
2019-05-26T02:36:47.998Z,9.74
2019-05-26T02:39:14.130Z,9.73
2019-05-26T02:41:40.266Z,9.73
2019-05-26T02:44:06.494Z,9.71
2019-05-26T02:46:32.578Z,9.72
2019-05-26T02:48:58.688Z,9.75
2019-05-26T02:51:24.857Z,9.76
2019-05-26T02:53:50.991Z,9.76
2019-05-26T02:56:17.087Z,9.78
2019-05-26T02:58:43.127Z,9.79
2019-05-26T03:01:09.449Z,9.79
2019-05-26T03:03:35.656Z,9.81
2019-05-26T03:06:02.958Z,9.83
2019-05-26T03:08:29.478Z,9.84
2019-05-26T03:10:57.868Z,9.84
2019-05-26T03:13:26.270Z,9.87
2019-05-26T03:15:54.792Z,9.94
2019-05-26T03:18:20.794Z,9.96
2019-05-26T03:20:46.900Z,10.00
2019-05-26T03:23:15.010Z,10.05
2019-05-26T03:25:41.112Z,10.07
2019-05-26T03:28:07.839Z,10.13
2019-05-26T03:30:34.617Z,10.13
2019-05-26T03:33:00.639Z,10.14
2019-05-26T03:35:26.664Z,10.18
2019-05-26T03:37:52.570Z,10.21
2019-05-26T03:40:18.685Z,10.25
2019-05-26T03:42:44.731Z,10.30
2019-05-26T03:45:14.393Z,10.31
2019-05-26T03:47:40.448Z,10.30
2019-05-26T03:50:06.856Z,10.29
2019-05-26T03:52:32.897Z,10.26
2019-05-26T03:54:58.891Z,10.24
2019-05-26T03:57:24.932Z,10.25
2019-05-26T03:59:50.940Z,10.29
2019-05-26T04:02:16.971Z,10.32
2019-05-26T04:04:42.877Z,10.37
2019-05-26T04:07:09.020Z,10.38
2019-05-26T04:09:34.924Z,10.39
2019-05-26T04:12:00.839Z,10.38
2019-05-26T04:14:26.848Z,10.41
2019-05-26T04:16:56.239Z,10.44
2019-05-26T04:19:20.913Z,10.49
2019-05-26T04:21:47.466Z,10.51
2019-05-26T04:24:13.600Z,10.53
2019-05-26T04:26:40.302Z,10.54
2019-05-26T04:29:06.304Z,10.58
2019-05-26T04:31:32.422Z,10.52
2019-05-26T04:33:58.349Z,10.46
2019-05-26T04:36:24.385Z,10.47
2019-05-26T04:38:50.393Z,10.36
2019-05-26T04:41:16.435Z,10.38
2019-05-26T04:43:42.352Z,10.33
2019-05-26T04:46:08.363Z,10.33
2019-05-26T04:48:34.306Z,10.32
2019-05-26T04:51:00.335Z,10.41
2019-05-26T04:53:26.339Z,10.51
2019-05-26T04:55:52.495Z,10.50
2019-05-26T04:58:18.603Z,10.49
2019-05-26T05:00:44.645Z,10.50
2019-05-26T05:03:10.757Z,10.58
2019-05-26T05:05:36.658Z,10.69
2019-05-26T05:08:02.892Z,10.73
2019-05-26T05:10:41.979Z,10.74
2019-05-26T05:12:56.919Z,10.85
2019-05-26T05:15:23.030Z,10.85
2019-05-26T05:17:49.040Z,10.90
2019-05-26T05:20:15.240Z,10.98
2019-05-26T05:22:41.160Z,11.05
2019-05-26T05:25:13.890Z,11.10
2019-05-26T05:27:35.388Z,11.13
2019-05-26T05:30:03.464Z,11.15
2019-05-26T05:32:32.810Z,11.15
2019-05-26T05:34:57.316Z,11.23
2019-05-26T05:37:25.312Z,11.29
2019-05-26T05:39:51.340Z,11.37
2019-05-26T05:42:17.447Z,11.44
2019-05-26T05:44:43.464Z,11.53
2019-05-26T05:47:09.571Z,11.58
2019-05-26T05:49:35.694Z,11.65
2019-05-26T05:52:01.696Z,11.69
2019-05-26T05:54:27.717Z,11.75
2019-05-26T05:56:55.747Z,11.79
2019-05-26T05:59:21.650Z,11.87
2019-05-26T06:01:47.540Z,11.92
2019-05-26T06:04:13.558Z,11.97
2019-05-26T06:06:39.571Z,12.06
2019-05-26T06:09:05.883Z,12.18
2019-05-26T06:11:31.997Z,12.27
2019-05-26T06:13:57.944Z,12.33
2019-05-26T06:16:24.115Z,12.41
2019-05-26T06:18:50.219Z,12.50
2019-05-26T06:21:16.324Z,12.61
2019-05-26T06:23:42.327Z,12.69
2019-05-26T06:26:08.483Z,12.78
2019-05-26T06:28:34.606Z,12.90
2019-05-26T06:31:00.753Z,13.01
2019-05-26T06:33:26.795Z,13.14
2019-05-26T06:35:52.915Z,13.26
2019-05-26T06:38:18.921Z,13.33
2019-05-26T06:40:44.939Z,13.46
2019-05-26T06:43:11.078Z,13.57
2019-05-26T06:45:37.092Z,13.70
2019-05-26T06:48:03.237Z,13.81
2019-05-26T06:50:29.364Z,13.97
2019-05-26T06:52:55.379Z,14.07
2019-05-26T06:55:21.370Z,14.14
2019-05-26T06:57:47.307Z,14.20
2019-05-26T07:00:13.813Z,14.29
2019-05-26T07:02:39.918Z,14.43
2019-05-26T07:05:06.633Z,14.53
2019-05-26T07:07:32.790Z,14.67
2019-05-26T07:09:58.802Z,14.77
2019-05-26T07:12:24.754Z,15.00
2019-05-26T07:14:50.762Z,15.14
2019-05-26T07:17:20.396Z,15.20
2019-05-26T07:19:44.721Z,15.37
2019-05-26T07:22:10.725Z,15.63
2019-05-26T07:24:36.840Z,15.81
2019-05-26T07:27:02.949Z,15.92
2019-05-26T07:29:28.989Z,16.05
2019-05-26T07:31:55.020Z,16.14
2019-05-26T07:34:20.923Z,16.24
2019-05-26T07:36:46.931Z,16.30
2019-05-26T07:39:13.037Z,16.47
2019-05-26T07:41:39.161Z,16.60
2019-05-26T07:44:05.268Z,16.70
2019-05-26T07:46:31.278Z,16.80
2019-05-26T07:48:57.196Z,16.92
2019-05-26T07:51:23.139Z,17.07
2019-05-26T07:53:49.148Z,17.19
2019-05-26T07:56:15.163Z,17.23
2019-05-26T07:58:41.074Z,17.25
2019-05-26T08:01:07.200Z,17.35
2019-05-26T08:03:33.327Z,17.49
2019-05-26T08:05:59.326Z,17.58
2019-05-26T08:08:25.355Z,17.66
2019-05-26T08:10:51.460Z,17.71
2019-05-26T08:13:17.581Z,17.72
2019-05-26T08:15:43.584Z,17.83
2019-05-26T08:18:09.703Z,17.94
2019-05-26T08:20:35.817Z,18.11
2019-05-26T08:23:01.953Z,18.29
2019-05-26T08:25:28.080Z,18.37
2019-05-26T08:27:54.092Z,18.41
2019-05-26T08:30:20.231Z,18.58
2019-05-26T08:32:46.334Z,18.72
2019-05-26T08:35:12.465Z,18.89
2019-05-26T08:37:38.581Z,19.02
2019-05-26T08:40:17.119Z,19.13
2019-05-26T08:42:44.753Z,19.27
2019-05-26T08:45:10.979Z,19.39
2019-05-26T08:47:37.161Z,19.40
2019-05-26T08:50:05.379Z,19.39
2019-05-26T08:52:31.406Z,19.42
2019-05-26T08:54:57.417Z,19.46
2019-05-26T08:57:23.567Z,19.54
2019-05-26T08:59:49.489Z,19.57
2019-05-26T09:02:15.419Z,19.61
2019-05-26T09:04:41.399Z,19.66
2019-05-26T09:07:07.516Z,19.71
2019-05-26T09:09:33.557Z,19.72
2019-05-26T09:11:59.742Z,19.86
2019-05-26T09:14:25.759Z,19.98
2019-05-26T09:16:51.881Z,20.06
2019-05-26T09:19:18.023Z,20.08
2019-05-26T09:21:44.214Z,20.12
2019-05-26T09:24:10.372Z,20.21
2019-05-26T09:26:36.533Z,20.37
2019-05-26T09:29:02.834Z,20.48
2019-05-26T09:31:28.981Z,20.44
2019-05-26T09:33:54.991Z,20.40
2019-05-26T09:36:21.001Z,20.37
2019-05-26T09:38:47.078Z,20.33
2019-05-26T09:41:13.186Z,20.32
2019-05-26T09:43:39.345Z,20.36
2019-05-26T09:46:05.358Z,20.44
2019-05-26T09:48:31.499Z,20.52
2019-05-26T09:50:57.669Z,20.56
2019-05-26T09:53:23.784Z,20.61
2019-05-26T09:55:49.904Z,20.71
2019-05-26T09:58:16.016Z,20.80
2019-05-26T10:00:43.734Z,20.95
2019-05-26T10:03:09.653Z,21.00
2019-05-26T10:05:35.651Z,21.02
2019-05-26T10:08:01.730Z,21.04
2019-05-26T10:10:27.731Z,21.05
2019-05-26T10:12:53.839Z,21.15
2019-05-26T10:15:20.052Z,21.26
2019-05-26T10:17:46.059Z,21.40
2019-05-26T10:20:12.362Z,21.59
2019-05-26T10:22:38.487Z,21.73
2019-05-26T10:25:05.192Z,21.85
2019-05-26T10:27:31.271Z,21.98
2019-05-26T10:29:57.356Z,22.07
2019-05-26T10:32:23.524Z,22.17
2019-05-26T10:34:49.552Z,22.25
2019-05-26T10:37:15.588Z,22.28
2019-05-26T10:39:44.865Z,22.28
2019-05-26T10:42:09.699Z,22.29
2019-05-26T10:44:35.603Z,22.21
2019-05-26T10:47:01.710Z,22.08
2019-05-26T10:49:27.728Z,22.07
2019-05-26T10:51:53.805Z,22.05
2019-05-26T10:54:19.806Z,21.94
2019-05-26T10:56:45.949Z,21.91
2019-05-26T10:59:11.949Z,21.82
2019-05-26T11:01:38.011Z,21.74
2019-05-26T11:04:04.238Z,21.72
2019-05-26T11:06:30.373Z,21.71
2019-05-26T11:08:56.379Z,21.63
2019-05-26T11:11:22.324Z,21.58
2019-05-26T11:14:01.869Z,21.55
2019-05-26T11:16:16.891Z,21.52
2019-05-26T11:18:42.888Z,21.50
2019-05-26T11:21:12.240Z,21.46
2019-05-26T11:23:37.072Z,21.52
2019-05-26T11:26:03.868Z,21.57
2019-05-26T11:28:29.992Z,21.53
2019-05-26T11:30:55.953Z,21.52
2019-05-26T11:33:21.990Z,21.55
2019-05-26T11:35:47.881Z,21.58
2019-05-26T11:38:13.927Z,21.59
2019-05-26T11:40:40.043Z,21.63
2019-05-26T11:43:16.388Z,21.66
2019-05-26T11:45:34.213Z,21.69
2019-05-26T11:48:00.379Z,21.73
2019-05-26T11:50:26.387Z,21.74
2019-05-26T11:52:52.500Z,21.74
2019-05-26T11:55:18.606Z,21.72
2019-05-26T11:57:44.650Z,21.66
2019-05-26T12:00:14.186Z,21.61
2019-05-26T12:02:40.427Z,21.59
2019-05-26T12:05:06.931Z,21.58
2019-05-26T12:07:32.944Z,21.60
2019-05-26T12:09:58.956Z,21.57
2019-05-26T12:12:24.952Z,21.55
2019-05-26T12:14:50.859Z,21.60
2019-05-26T12:17:16.867Z,21.76
2019-05-26T12:19:42.888Z,21.88
2019-05-26T12:22:09.192Z,22.04
2019-05-26T12:24:35.202Z,22.09
2019-05-26T12:27:01.203Z,22.24
2019-05-26T12:29:27.213Z,22.38
2019-05-26T12:31:53.210Z,22.47
2019-05-26T12:34:19.977Z,22.39
2019-05-26T12:36:46.080Z,22.36
2019-05-26T12:39:12.099Z,22.38
2019-05-26T12:41:38.008Z,22.48
2019-05-26T12:44:04.222Z,22.62
2019-05-26T12:46:30.251Z,22.65
2019-05-26T12:48:56.228Z,22.70
2019-05-26T12:51:22.227Z,22.77
2019-05-26T12:53:48.243Z,22.79
2019-05-26T12:56:15.231Z,22.85
2019-05-26T12:58:41.404Z,22.90
2019-05-26T13:01:07.495Z,22.94
2019-05-26T13:03:33.535Z,22.94
2019-05-26T13:05:59.667Z,22.96
2019-05-26T13:08:25.717Z,23.01
2019-05-26T13:10:51.727Z,23.01
2019-05-26T13:13:17.860Z,23.04
2019-05-26T13:15:43.982Z,23.06
2019-05-26T13:18:10.096Z,23.13
2019-05-26T13:20:36.235Z,23.19
2019-05-26T13:23:02.378Z,23.12
2019-05-26T13:25:28.515Z,23.11
2019-05-26T13:27:54.534Z,23.28
2019-05-26T13:30:22.855Z,23.50
2019-05-26T13:32:49.074Z,23.53
2019-05-26T13:35:15.415Z,23.58
2019-05-26T13:37:41.483Z,23.87
2019-05-26T13:40:08.721Z,23.87
2019-05-26T13:42:35.076Z,23.87
2019-05-26T13:45:01.175Z,23.87
2019-05-26T13:47:27.225Z,23.84
2019-05-26T13:49:53.329Z,23.84
2019-05-26T13:52:19.481Z,23.87
2019-05-26T13:54:45.510Z,23.92
2019-05-26T13:57:11.669Z,23.98
2019-05-26T13:59:37.704Z,23.98
2019-05-26T14:02:03.924Z,24.02
2019-05-26T14:04:30.042Z,24.02
2019-05-26T14:06:56.154Z,23.90
2019-05-26T14:09:22.278Z,23.76
2019-05-26T14:11:48.290Z,23.68
2019-05-26T14:14:14.822Z,23.62
2019-05-26T14:16:43.142Z,23.52
2019-05-26T14:19:09.489Z,23.40
2019-05-26T14:21:35.486Z,23.35
2019-05-26T14:24:01.441Z,23.34
2019-05-26T14:26:27.369Z,23.31
2019-05-26T14:28:53.379Z,23.23
2019-05-26T14:31:19.546Z,23.08
2019-05-26T14:33:45.450Z,23.08
2019-05-26T14:36:11.486Z,23.00
2019-05-26T14:38:43.161Z,22.97
2019-05-26T14:41:05.405Z,23.03
2019-05-26T14:43:31.603Z,22.87
2019-05-26T14:45:57.708Z,22.82
2019-05-26T14:48:23.821Z,22.76
2019-05-26T14:50:49.922Z,22.67
2019-05-26T14:53:16.068Z,22.68
2019-05-26T14:55:42.075Z,22.72
2019-05-26T14:58:15.876Z,22.59
2019-05-26T15:00:36.196Z,22.50
2019-05-26T15:03:02.804Z,22.43
2019-05-26T15:05:28.910Z,22.37
2019-05-26T15:07:55.029Z,22.40
2019-05-26T15:10:22.694Z,22.25
2019-05-26T15:12:49.170Z,22.12
2019-05-26T15:15:16.570Z,22.05
2019-05-26T15:17:42.784Z,22.13
2019-05-26T15:20:09.391Z,22.22
2019-05-26T15:22:35.427Z,22.28
2019-05-26T15:25:03.467Z,22.18
2019-05-26T15:27:29.482Z,22.08
2019-05-26T15:29:55.382Z,21.99
2019-05-26T15:32:21.498Z,21.96
2019-05-26T15:34:47.400Z,21.94
2019-05-26T15:37:13.539Z,21.96
2019-05-26T15:39:39.559Z,22.01
2019-05-26T15:42:08.330Z,22.05
2019-05-26T15:44:33.589Z,22.06
2019-05-26T15:46:59.925Z,22.09
2019-05-26T15:49:26.040Z,22.05
2019-05-26T15:51:52.155Z,22.01
2019-05-26T15:54:18.174Z,21.90
2019-05-26T15:56:44.194Z,21.74
2019-05-26T15:59:10.304Z,21.63
2019-05-26T16:01:36.318Z,21.42
2019-05-26T16:04:02.442Z,21.30
2019-05-26T16:06:28.587Z,21.16
2019-05-26T16:08:54.719Z,21.08
2019-05-26T16:11:20.827Z,21.04
2019-05-26T16:13:46.877Z,21.07
2019-05-26T16:16:12.983Z,21.12
2019-05-26T16:18:39.107Z,21.20
2019-05-26T16:21:05.214Z,21.15
2019-05-26T16:23:31.326Z,21.11
2019-05-26T16:25:57.335Z,21.15
2019-05-26T16:28:23.373Z,21.19
2019-05-26T16:30:49.267Z,21.20
2019-05-26T16:33:15.193Z,21.37
2019-05-26T16:35:41.298Z,21.37
2019-05-26T16:38:07.310Z,21.37
2019-05-26T16:40:33.358Z,21.39
2019-05-26T16:42:59.359Z,21.33
2019-05-26T16:45:25.376Z,21.25
2019-05-26T16:47:51.287Z,21.22
2019-05-26T16:50:17.398Z,21.22
2019-05-26T16:52:43.515Z,21.24
2019-05-26T16:55:10.122Z,21.18
2019-05-26T16:57:36.237Z,21.22
2019-05-26T17:00:03.345Z,21.27
2019-05-26T17:02:29.360Z,21.31
2019-05-26T17:04:55.491Z,21.30
2019-05-26T17:07:21.401Z,21.29
2019-05-26T17:09:47.542Z,21.25
2019-05-26T17:12:13.588Z,21.19
2019-05-26T17:14:39.596Z,21.10
2019-05-26T17:17:14.875Z,21.02
2019-05-26T17:19:33.648Z,20.94
2019-05-26T17:21:59.676Z,20.85
2019-05-26T17:24:25.717Z,20.77
2019-05-26T17:26:51.827Z,20.71
2019-05-26T17:29:17.866Z,20.63
2019-05-26T17:31:43.875Z,20.56
2019-05-26T17:34:10.022Z,20.50
2019-05-26T17:36:36.341Z,20.48
2019-05-26T17:39:05.593Z,20.45
2019-05-26T17:41:31.533Z,20.37
2019-05-26T17:43:57.464Z,20.24
2019-05-26T17:46:23.469Z,20.26
2019-05-26T17:48:49.578Z,20.24
2019-05-26T17:51:15.693Z,20.21
2019-05-26T17:53:41.728Z,20.15
2019-05-26T17:56:07.893Z,20.07
2019-05-26T17:58:33.898Z,20.02
2019-05-26T18:01:00.054Z,19.95
2019-05-26T18:03:26.069Z,19.86
2019-05-26T18:05:52.212Z,19.78
2019-05-26T18:08:18.323Z,19.69
2019-05-26T18:10:44.471Z,19.62
2019-05-26T18:13:10.592Z,19.56
2019-05-26T18:15:36.747Z,19.46
2019-05-26T18:18:02.951Z,19.33
2019-05-26T18:20:29.162Z,19.22
2019-05-26T18:22:55.205Z,19.08
2019-05-26T18:25:21.302Z,18.98
2019-05-26T18:27:47.309Z,18.90
2019-05-26T18:30:13.817Z,18.79
2019-05-26T18:32:39.827Z,18.66
2019-05-26T18:35:06.963Z,18.54
2019-05-26T18:37:33.076Z,18.44
2019-05-26T18:39:59.193Z,18.34
2019-05-26T18:42:25.293Z,18.24
2019-05-26T18:44:51.324Z,18.16
2019-05-26T18:47:17.430Z,18.07
2019-05-26T18:49:43.576Z,17.96
2019-05-26T18:52:09.791Z,17.86
2019-05-26T18:54:35.879Z,17.76
2019-05-26T18:57:02.007Z,17.66
2019-05-26T18:59:28.035Z,17.58
2019-05-26T19:01:54.178Z,17.50
2019-05-26T19:04:20.183Z,17.45
2019-05-26T19:06:46.089Z,17.39
2019-05-26T19:09:12.196Z,17.35
2019-05-26T19:11:38.301Z,17.28
2019-05-26T19:14:05.110Z,17.22
2019-05-26T19:16:31.216Z,17.15
2019-05-26T19:18:57.411Z,17.08
2019-05-26T19:21:23.514Z,17.03
2019-05-26T19:23:49.555Z,16.93
2019-05-26T19:26:15.704Z,16.87
2019-05-26T19:28:41.749Z,16.80
2019-05-26T19:31:07.856Z,16.76
2019-05-26T19:33:33.894Z,16.68
2019-05-26T19:35:59.794Z,16.60
2019-05-26T19:38:25.944Z,16.54
2019-05-26T19:40:51.974Z,16.48
2019-05-26T19:43:18.110Z,16.44
2019-05-26T19:45:44.230Z,16.40
2019-05-26T19:48:10.235Z,16.36
2019-05-26T19:50:36.283Z,16.25
2019-05-26T19:53:02.608Z,16.17
2019-05-26T19:55:28.788Z,16.13
2019-05-26T19:57:54.798Z,16.06
2019-05-26T20:00:21.282Z,16.00
2019-05-26T20:02:47.291Z,15.92
2019-05-26T20:05:14.183Z,15.83
2019-05-26T20:07:40.295Z,15.76
2019-05-26T20:10:07.335Z,15.68
2019-05-26T20:12:33.437Z,15.62
2019-05-26T20:14:59.545Z,15.57
2019-05-26T20:17:25.558Z,15.50
2019-05-26T20:19:51.599Z,15.42
2019-05-26T20:22:17.697Z,15.37
2019-05-26T20:24:43.645Z,15.34
2019-05-26T20:27:09.760Z,15.26
2019-05-26T20:29:35.795Z,15.19
2019-05-26T20:32:01.938Z,15.13
2019-05-26T20:34:28.049Z,15.07
2019-05-26T20:36:54.164Z,15.04
2019-05-26T20:39:20.170Z,15.02
2019-05-26T20:41:46.077Z,15.02
2019-05-26T20:44:12.190Z,14.99
2019-05-26T20:46:38.204Z,14.96
2019-05-26T20:49:04.312Z,14.94
2019-05-26T20:51:30.418Z,14.88
2019-05-26T20:53:56.483Z,14.80
2019-05-26T20:56:22.487Z,14.74
2019-05-26T20:58:48.496Z,14.70
2019-05-26T21:01:14.611Z,14.64
2019-05-26T21:03:40.736Z,14.58
2019-05-26T21:06:06.673Z,14.54
2019-05-26T21:08:32.621Z,14.51
2019-05-26T21:10:58.519Z,14.45
2019-05-26T21:13:24.465Z,14.40
2019-05-26T21:15:50.588Z,14.34
2019-05-26T21:18:16.639Z,14.30
2019-05-26T21:20:43.153Z,14.24
2019-05-26T21:23:09.059Z,14.18
2019-05-26T21:25:35.230Z,14.12
2019-05-26T21:28:01.085Z,14.06
2019-05-26T21:30:27.190Z,14.02
2019-05-26T21:32:53.300Z,13.97
2019-05-26T21:35:19.409Z,13.92
2019-05-26T21:37:45.413Z,13.86
2019-05-26T21:40:11.759Z,13.78
2019-05-26T21:42:37.762Z,13.71
2019-05-26T21:45:05.369Z,13.65
2019-05-26T21:47:31.515Z,13.60
2019-05-26T21:49:57.518Z,13.54
2019-05-26T21:52:23.635Z,13.47
2019-05-26T21:54:49.584Z,13.43
2019-05-26T21:57:15.603Z,13.39
2019-05-26T21:59:41.539Z,13.33
2019-05-26T22:02:07.709Z,13.27
2019-05-26T22:04:33.815Z,13.23
2019-05-26T22:06:59.965Z,13.20
2019-05-26T22:09:26.095Z,13.14
2019-05-26T22:11:52.115Z,13.13
2019-05-26T22:14:18.224Z,13.07
2019-05-26T22:16:44.229Z,13.03
2019-05-26T22:19:10.382Z,13.02
2019-05-26T22:21:36.291Z,13.01
2019-05-26T22:24:02.532Z,12.98
2019-05-26T22:26:28.594Z,12.98
2019-05-26T22:28:54.702Z,12.95
2019-05-26T22:31:21.455Z,12.94
2019-05-26T22:33:47.366Z,12.92
2019-05-26T22:36:13.394Z,12.89
2019-05-26T22:38:39.411Z,12.85
2019-05-26T22:41:05.551Z,12.80
2019-05-26T22:43:31.695Z,12.75
2019-05-26T22:45:57.965Z,12.73
2019-05-26T22:48:24.005Z,12.69
2019-05-26T22:50:50.049Z,12.64
2019-05-26T22:53:16.162Z,12.59
2019-05-26T22:55:42.176Z,12.55
2019-05-26T22:58:08.090Z,12.50
2019-05-26T23:00:34.209Z,12.48
2019-05-26T23:03:00.351Z,12.42
2019-05-26T23:05:26.468Z,12.40
2019-05-26T23:07:52.576Z,12.35
2019-05-26T23:10:18.677Z,12.30
2019-05-26T23:12:44.795Z,12.24
2019-05-26T23:15:12.535Z,12.20
2019-05-26T23:17:39.308Z,12.17
2019-05-26T23:20:07.581Z,12.15
2019-05-26T23:22:33.586Z,12.12
2019-05-26T23:24:59.703Z,12.07
2019-05-26T23:27:25.824Z,12.01
2019-05-26T23:29:51.721Z,12.00
2019-05-26T23:32:17.828Z,12.00
2019-05-26T23:34:43.861Z,11.96
2019-05-26T23:37:09.847Z,11.93
2019-05-26T23:39:35.961Z,11.90
2019-05-26T23:42:02.097Z,11.83
2019-05-26T23:44:28.101Z,11.79
2019-05-26T23:46:54.138Z,11.74
2019-05-26T23:49:20.054Z,11.71
2019-05-26T23:51:46.107Z,11.69
2019-05-26T23:54:12.229Z,11.67
2019-05-26T23:56:38.323Z,11.64
2019-05-26T23:59:04.434Z,11.61
